5Z7 weather

Kasitsna Airport
Kasitsna Bay, Alaska, United States

Public forecast

Using degrees Fahrenheit for public forecast. Weather courtesy of forecast.io.

METAR (pilot weather report)

Closest report is Seldovia Airport, 4.3 nm (8.0 km) WSW. Retrieved 2019/07/20 16:53 UTC (23 minutes ago):

PASO 201653Z AUTO 17004KT 10SM OVC050 17/13 A3010 RMK AO2 SLP192 T01720128 TSNO

TAF (pilot weather forecast)

Closest forecast is Homer Airport, 11.0 nm (20.4 km) NNE. Retrieved 2019/07/20 12:30 UTC (5 hours ago):

TAF PAHO 201127Z 2012/2112 24007KT P6SM SCT040 BKN110 FM201400 VRB04KT P6SM SCT025 BKN110 FM202000 25012KT P6SM BKN110 FM210800 VRB05KT P6SM SCT025 BKN060